createdAt,value
2019-01-11T00:00:53.422Z,13.07
2019-01-11T00:02:58.551Z,12.90
2019-01-11T00:05:03.602Z,13.17
2019-01-11T00:07:08.754Z,13.37
2019-01-11T00:09:13.887Z,12.43
2019-01-11T00:11:18.991Z,11.33
2019-01-11T00:13:24.120Z,15.43
2019-01-11T00:15:29.284Z,12.43
2019-01-11T00:17:34.318Z,11.20
2019-01-11T00:19:39.383Z,11.87
2019-01-11T00:21:44.482Z,11.50
2019-01-11T00:23:49.653Z,13.07
2019-01-11T00:25:54.693Z,13.40
2019-01-11T00:27:59.810Z,12.50
2019-01-11T00:30:06.775Z,13.00
2019-01-11T00:32:11.827Z,13.20
2019-01-11T00:34:17.127Z,10.77
2019-01-11T00:36:22.187Z,12.50
2019-01-11T00:38:27.211Z,13.17
2019-01-11T00:40:32.293Z,15.67
2019-01-11T00:42:37.595Z,14.63
2019-01-11T00:44:42.562Z,13.00
2019-01-11T00:46:47.606Z,13.83
2019-01-11T00:48:52.668Z,13.90
2019-01-11T00:50:57.646Z,13.67
2019-01-11T00:53:02.732Z,13.87
2019-01-11T00:55:08.522Z,14.43
2019-01-11T00:57:14.033Z,14.67
2019-01-11T00:59:19.331Z,14.93
2019-01-11T01:01:24.456Z,15.90
2019-01-11T01:03:29.415Z,15.27
2019-01-11T01:05:34.423Z,16.00
2019-01-11T01:07:39.359Z,17.40
2019-01-11T01:09:44.683Z,15.73
2019-01-11T01:11:49.742Z,16.00
2019-01-11T01:13:54.724Z,22.60
2019-01-11T01:16:00.054Z,17.20
2019-01-11T01:18:05.372Z,21.40
2019-01-11T01:20:12.449Z,19.90
2019-01-11T01:22:17.397Z,23.17
2019-01-11T01:24:22.413Z,20.30
2019-01-11T01:26:27.501Z,20.23
2019-01-11T01:28:33.016Z,21.87
2019-01-11T01:30:38.143Z,18.80
2019-01-11T01:32:43.549Z,21.30
2019-01-11T01:34:48.654Z,19.93
2019-01-11T01:36:54.036Z,18.60
2019-01-11T01:38:59.078Z,18.00
2019-01-11T01:41:04.122Z,16.23
2019-01-11T01:43:09.284Z,18.87
2019-01-11T01:45:16.044Z,14.50
2019-01-11T01:47:21.111Z,13.90
2019-01-11T01:49:26.684Z,13.77
2019-01-11T01:51:31.874Z,15.63
2019-01-11T01:53:37.007Z,14.23
2019-01-11T01:55:42.175Z,13.30
2019-01-11T01:57:47.168Z,14.00
2019-01-11T01:59:52.177Z,14.10
2019-01-11T02:02:00.592Z,10.53
2019-01-11T02:04:05.770Z,13.53
2019-01-11T02:06:12.393Z,10.87
2019-01-11T02:08:19.325Z,11.67
2019-01-11T02:10:24.377Z,7.83
2019-01-11T02:12:29.432Z,9.93
2019-01-11T02:14:34.876Z,8.83
2019-01-11T02:16:40.015Z,10.90
2019-01-11T02:18:45.126Z,9.60
2019-01-11T02:20:50.108Z,9.67
2019-01-11T02:22:55.201Z,8.77
2019-01-11T02:25:00.314Z,10.20
2019-01-11T02:27:05.794Z,8.43
2019-01-11T02:29:11.232Z,9.87
2019-01-11T02:31:16.306Z,9.50
2019-01-11T02:33:25.043Z,9.73
2019-01-11T02:35:28.938Z,11.10
2019-01-11T02:37:34.209Z,9.03
2019-01-11T02:39:39.179Z,10.00
2019-01-11T02:41:44.178Z,8.90
2019-01-11T02:43:49.248Z,9.30
2019-01-11T02:45:54.334Z,9.13
2019-01-11T02:47:59.273Z,8.93
2019-01-11T02:50:05.203Z,8.33
2019-01-11T02:52:10.398Z,8.77
2019-01-11T02:54:15.309Z,8.00
2019-01-11T02:56:20.477Z,8.00
2019-01-11T02:58:25.551Z,8.33
2019-01-11T03:00:33.525Z,7.27
2019-01-11T03:02:40.340Z,7.90
2019-01-11T03:04:45.481Z,7.40
2019-01-11T03:06:50.791Z,7.40
2019-01-11T03:08:55.837Z,7.30
2019-01-11T03:11:00.812Z,7.57
2019-01-11T03:13:06.156Z,7.10
2019-01-11T03:15:11.575Z,7.20
2019-01-11T03:17:16.635Z,6.73
2019-01-11T03:19:21.681Z,7.90
2019-01-11T03:21:26.833Z,6.80
2019-01-11T03:23:32.352Z,6.47
2019-01-11T03:25:37.730Z,7.00
2019-01-11T03:27:42.869Z,7.13
2019-01-11T03:29:47.769Z,6.47
2019-01-11T03:31:52.775Z,6.60
2019-01-11T03:33:57.760Z,6.73
2019-01-11T03:36:03.425Z,6.00
2019-01-11T03:38:08.475Z,6.57
2019-01-11T03:40:15.163Z,5.77
2019-01-11T03:42:20.609Z,6.47
2019-01-11T03:44:25.755Z,6.63
2019-01-11T03:46:30.735Z,6.07
2019-01-11T03:48:35.757Z,7.30
2019-01-11T03:50:41.226Z,6.20
2019-01-11T03:52:46.527Z,6.57
2019-01-11T03:54:51.585Z,6.87
2019-01-11T03:56:56.708Z,6.47
2019-01-11T03:59:01.893Z,7.20
2019-01-11T04:01:06.995Z,6.53
2019-01-11T04:03:12.360Z,6.83
2019-01-11T04:05:17.616Z,7.13
2019-01-11T04:07:22.592Z,6.67
2019-01-11T04:09:27.975Z,5.97
2019-01-11T04:11:32.890Z,5.83
2019-01-11T04:13:37.868Z,5.70
2019-01-11T04:15:42.986Z,5.53
2019-01-11T04:18:05.794Z,5.83
2019-01-11T04:20:15.686Z,5.87
2019-01-11T04:22:27.776Z,5.20
2019-01-11T04:24:38.174Z,4.67
2019-01-11T04:26:43.226Z,5.00
2019-01-11T04:28:48.317Z,5.10
2019-01-11T04:30:53.434Z,4.40
2019-01-11T04:32:58.403Z,4.30
2019-01-11T04:35:03.647Z,5.07
2019-01-11T04:37:08.894Z,5.10
2019-01-11T04:39:13.867Z,4.83
2019-01-11T04:41:18.726Z,5.00
2019-01-11T04:43:23.821Z,4.37
2019-01-11T04:45:28.795Z,4.27
2019-01-11T04:47:34.014Z,5.07
2019-01-11T04:49:39.850Z,5.00
2019-01-11T04:51:44.860Z,5.43
2019-01-11T04:53:50.503Z,5.83
2019-01-11T04:55:55.595Z,5.57
2019-01-11T04:58:00.848Z,4.93
2019-01-11T05:00:14.721Z,5.10
2019-01-11T05:02:19.850Z,5.03
2019-01-11T05:04:24.831Z,5.23
2019-01-11T05:06:29.851Z,5.13
2019-01-11T05:08:34.892Z,5.00
2019-01-11T05:10:40.099Z,5.23
2019-01-11T05:12:45.131Z,5.10
2019-01-11T05:14:50.091Z,4.70
2019-01-11T05:16:55.051Z,4.57
2019-01-11T05:19:00.040Z,4.40
2019-01-11T05:21:05.203Z,4.30
2019-01-11T05:23:10.109Z,4.17
2019-01-11T05:25:15.803Z,4.40
2019-01-11T05:27:21.061Z,4.53
2019-01-11T05:29:26.054Z,4.63
2019-01-11T05:31:31.078Z,4.40
2019-01-11T05:33:36.206Z,3.90
2019-01-11T05:35:41.674Z,3.73
2019-01-11T05:37:46.696Z,3.87
2019-01-11T05:39:51.713Z,3.47
2019-01-11T05:41:56.629Z,3.63
2019-01-11T05:44:01.504Z,3.60
2019-01-11T05:46:06.550Z,3.53
2019-01-11T05:48:11.612Z,3.10
2019-01-11T05:50:23.835Z,3.53
2019-01-11T05:52:26.402Z,3.27
2019-01-11T05:54:31.579Z,3.47
2019-01-11T05:56:36.452Z,3.43
2019-01-11T05:58:50.933Z,3.70
2019-01-11T06:00:55.831Z,3.33
2019-01-11T06:03:01.061Z,3.10
2019-01-11T06:05:10.720Z,3.73
2019-01-11T06:07:23.454Z,3.50
2019-01-11T06:09:28.428Z,2.97
2019-01-11T06:11:34.062Z,2.97
2019-01-11T06:13:39.314Z,2.87
2019-01-11T06:15:44.358Z,2.87
2019-01-11T06:17:49.465Z,3.33
2019-01-11T06:19:54.579Z,2.90
2019-01-11T06:21:59.520Z,3.30
2019-01-11T06:24:04.578Z,2.97
2019-01-11T06:26:09.939Z,2.93
2019-01-11T06:28:14.982Z,3.50
2019-01-11T06:30:20.105Z,3.10
2019-01-11T06:32:25.349Z,3.03
2019-01-11T06:34:30.448Z,3.07
2019-01-11T06:36:35.400Z,2.57
2019-01-11T06:38:40.448Z,3.50
2019-01-11T06:40:45.422Z,2.80
2019-01-11T06:42:50.332Z,3.40
2019-01-11T06:44:55.610Z,3.07
2019-01-11T06:47:01.562Z,2.70
2019-01-11T06:49:06.836Z,3.33
2019-01-11T06:51:12.107Z,3.13
2019-01-11T06:53:17.031Z,3.47
2019-01-11T06:55:21.997Z,3.37
2019-01-11T06:57:26.908Z,3.20
2019-01-11T06:59:31.975Z,3.57
2019-01-11T07:01:37.034Z,3.30
2019-01-11T07:03:42.185Z,3.07
2019-01-11T07:05:47.127Z,3.00
2019-01-11T07:07:52.081Z,4.33
2019-01-11T07:09:57.055Z,3.60
2019-01-11T07:12:02.352Z,3.60
2019-01-11T07:14:07.491Z,3.17
2019-01-11T07:16:12.609Z,3.50
2019-01-11T07:18:17.628Z,3.93
2019-01-11T07:20:22.545Z,3.67
2019-01-11T07:22:27.579Z,3.50
2019-01-11T07:24:32.718Z,3.50
2019-01-11T07:26:38.605Z,4.40
2019-01-11T07:28:43.476Z,3.27
2019-01-11T07:31:04.134Z,3.23
2019-01-11T07:33:10.945Z,3.53
2019-01-11T07:35:15.992Z,4.13
2019-01-11T07:37:20.965Z,4.20
2019-01-11T07:39:32.800Z,4.23
2019-01-11T07:41:37.706Z,3.83
2019-01-11T07:43:43.010Z,4.37
2019-01-11T07:45:48.110Z,4.07
2019-01-11T07:47:53.016Z,4.13
2019-01-11T07:49:57.966Z,3.83
2019-01-11T07:52:02.936Z,4.20
2019-01-11T07:54:08.081Z,4.33
2019-01-11T07:56:13.185Z,4.20
2019-01-11T07:58:18.146Z,4.10
2019-01-11T08:00:23.132Z,4.17
2019-01-11T08:02:28.239Z,4.70
2019-01-11T08:04:33.199Z,3.57
2019-01-11T08:06:38.185Z,3.80
2019-01-11T08:08:43.296Z,4.03
2019-01-11T08:10:48.360Z,4.20
2019-01-11T08:12:53.604Z,4.20
2019-01-11T08:14:58.621Z,4.20
2019-01-11T08:17:03.744Z,4.17
2019-01-11T08:19:08.920Z,3.83
2019-01-11T08:21:14.335Z,4.60
2019-01-11T08:23:19.689Z,4.80
2019-01-11T08:25:25.174Z,4.70
2019-01-11T08:27:30.211Z,4.30
2019-01-11T08:29:35.356Z,4.23
2019-01-11T08:31:40.493Z,5.37
2019-01-11T08:33:45.441Z,4.67
2019-01-11T08:35:50.340Z,4.67
2019-01-11T08:37:55.385Z,4.57
2019-01-11T08:40:00.319Z,4.20
2019-01-11T08:42:05.521Z,4.30
2019-01-11T08:44:10.865Z,5.60
2019-01-11T08:46:15.900Z,6.13
2019-01-11T08:48:20.929Z,4.87
2019-01-11T08:50:26.053Z,5.23
2019-01-11T08:52:30.959Z,5.33
2019-01-11T08:54:35.876Z,4.83
2019-01-11T08:56:40.977Z,6.00
2019-01-11T08:58:46.389Z,4.20
2019-01-11T09:00:51.757Z,4.60
2019-01-11T09:02:56.853Z,4.23
2019-01-11T09:05:01.773Z,4.60
2019-01-11T09:07:06.862Z,5.93
2019-01-11T09:09:12.331Z,5.00
2019-01-11T09:11:17.384Z,4.40
2019-01-11T09:13:22.331Z,4.53
2019-01-11T09:15:27.765Z,4.50
2019-01-11T09:17:33.866Z,4.57
2019-01-11T09:19:38.783Z,5.17
2019-01-11T09:21:44.382Z,5.30
2019-01-11T09:23:49.557Z,5.13
2019-01-11T09:25:54.793Z,5.40
2019-01-11T09:28:00.245Z,5.23
2019-01-11T09:30:06.349Z,5.20
2019-01-11T09:32:11.438Z,4.73
2019-01-11T09:34:17.597Z,6.00
2019-01-11T09:36:22.826Z,6.57
2019-01-11T09:38:27.947Z,4.97
2019-01-11T09:40:33.237Z,4.90
2019-01-11T09:42:38.296Z,6.03
2019-01-11T09:44:43.513Z,7.83
2019-01-11T09:46:48.612Z,6.20
2019-01-11T09:48:53.579Z,6.50
2019-01-11T09:50:58.561Z,8.47
2019-01-11T09:53:03.600Z,9.13
2019-01-11T09:55:09.007Z,8.80
2019-01-11T09:57:14.114Z,7.83
2019-01-11T09:59:19.080Z,8.37
2019-01-11T10:01:24.052Z,8.00
2019-01-11T10:03:29.016Z,9.00
2019-01-11T10:05:34.050Z,8.37
2019-01-11T10:07:39.811Z,7.73
2019-01-11T10:09:45.062Z,9.27
2019-01-11T10:11:50.319Z,9.13
2019-01-11T10:13:55.544Z,9.17
2019-01-11T10:16:00.626Z,10.23
2019-01-11T10:18:05.729Z,9.87
2019-01-11T10:20:11.813Z,9.23
2019-01-11T10:22:17.204Z,9.77
2019-01-11T10:24:22.096Z,9.63
2019-01-11T10:26:27.066Z,9.87
2019-01-11T10:28:32.007Z,9.77
2019-01-11T10:30:37.041Z,10.03
2019-01-11T10:32:42.101Z,11.43
2019-01-11T10:34:47.124Z,9.60
2019-01-11T10:36:52.479Z,12.70
2019-01-11T10:38:57.505Z,9.83
2019-01-11T10:41:02.630Z,14.20
2019-01-11T10:43:07.732Z,10.30
2019-01-11T10:45:19.961Z,11.73
2019-01-11T10:47:25.049Z,11.13
2019-01-11T10:49:30.008Z,11.63
2019-01-11T10:51:34.982Z,10.83
2019-01-11T10:53:39.910Z,11.87
2019-01-11T10:55:44.783Z,8.77
2019-01-11T10:57:50.555Z,11.10
2019-01-11T10:59:55.605Z,12.40
2019-01-11T11:02:00.829Z,10.63
2019-01-11T11:04:06.395Z,12.40
2019-01-11T11:06:11.454Z,12.43
2019-01-11T11:08:16.457Z,12.97
2019-01-11T11:10:21.731Z,13.13
2019-01-11T11:12:26.731Z,17.03
2019-01-11T11:14:31.756Z,14.07
2019-01-11T11:16:36.666Z,13.17
2019-01-11T11:18:41.713Z,12.40
2019-01-11T11:20:46.760Z,15.73
2019-01-11T11:22:52.802Z,14.83
2019-01-11T11:24:58.043Z,15.83
2019-01-11T11:27:03.145Z,15.43
2019-01-11T11:29:08.206Z,17.80
2019-01-11T11:31:13.244Z,37.07
2019-01-11T11:33:18.207Z,18.00
2019-01-11T11:35:23.621Z,20.07
2019-01-11T11:37:29.550Z,18.30
2019-01-11T11:39:34.744Z,21.50
2019-01-11T11:41:39.848Z,18.43
2019-01-11T11:43:44.833Z,17.80
2019-01-11T11:45:50.038Z,17.40
2019-01-11T11:47:55.133Z,18.50
2019-01-11T11:50:00.573Z,16.13
2019-01-11T11:52:05.719Z,20.30
2019-01-11T11:54:11.071Z,19.00
2019-01-11T11:56:16.361Z,19.97
2019-01-11T11:58:21.334Z,18.00
2019-01-11T12:00:27.834Z,20.10
2019-01-11T12:02:32.739Z,20.83
2019-01-11T12:04:38.304Z,21.03
2019-01-11T12:06:43.352Z,17.37
2019-01-11T12:08:48.312Z,18.03
2019-01-11T12:10:53.280Z,19.43
2019-01-11T12:12:58.922Z,18.77
2019-01-11T12:15:04.353Z,16.83
2019-01-11T12:17:09.476Z,18.47
2019-01-11T12:19:14.829Z,17.43
2019-01-11T12:21:19.943Z,17.90
2019-01-11T12:23:25.054Z,15.07
2019-01-11T12:25:30.389Z,15.80
2019-01-11T12:27:35.900Z,15.23
2019-01-11T12:29:40.882Z,14.93
2019-01-11T12:31:45.856Z,17.90
2019-01-11T12:33:51.079Z,19.23
2019-01-11T12:35:55.958Z,21.17
2019-01-11T12:38:01.710Z,17.73
2019-01-11T12:40:08.813Z,18.63
2019-01-11T12:42:13.765Z,19.07
2019-01-11T12:44:18.751Z,15.57
2019-01-11T12:46:23.634Z,21.10
2019-01-11T12:48:28.666Z,19.23
2019-01-11T12:50:33.653Z,14.83
2019-01-11T12:52:38.676Z,15.60
2019-01-11T12:54:43.708Z,14.23
2019-01-11T12:56:48.688Z,14.13
2019-01-11T12:58:53.636Z,11.73
2019-01-11T13:00:58.775Z,12.43
2019-01-11T13:03:04.188Z,11.67
2019-01-11T13:05:12.063Z,12.20
2019-01-11T13:07:17.124Z,12.77
2019-01-11T13:09:22.462Z,12.73
2019-01-11T13:11:27.588Z,12.70
2019-01-11T13:13:32.884Z,10.23
2019-01-11T13:15:38.226Z,10.93
2019-01-11T13:17:43.274Z,10.97
2019-01-11T13:19:48.135Z,10.80
2019-01-11T13:21:53.331Z,9.63
2019-01-11T13:23:58.290Z,10.53
2019-01-11T13:26:03.500Z,9.03
2019-01-11T13:28:08.853Z,9.57
2019-01-11T13:30:16.190Z,9.37
2019-01-11T13:32:21.280Z,9.90
2019-01-11T13:34:26.168Z,9.43
2019-01-11T13:36:31.283Z,8.93
2019-01-11T13:38:38.020Z,8.80
2019-01-11T13:40:43.076Z,10.83
2019-01-11T13:42:48.146Z,10.57
2019-01-11T13:44:53.013Z,11.37
2019-01-11T13:46:58.053Z,8.47
2019-01-11T13:49:03.208Z,8.53
2019-01-11T13:51:08.264Z,11.43
2019-01-11T13:53:16.149Z,9.13
2019-01-11T13:55:21.115Z,10.63
2019-01-11T13:57:26.109Z,9.23
2019-01-11T13:59:31.204Z,7.70
2019-01-11T14:01:36.311Z,7.77
2019-01-11T14:03:41.376Z,8.50
2019-01-11T14:05:46.254Z,11.03
2019-01-11T14:07:51.335Z,28.90
2019-01-11T14:09:56.219Z,21.33
2019-01-11T14:12:01.565Z,28.33
2019-01-11T14:14:06.754Z,25.73
2019-01-11T14:16:11.728Z,15.37
2019-01-11T14:18:16.657Z,11.17
2019-01-11T14:20:21.677Z,8.70
2019-01-11T14:22:26.928Z,8.07
2019-01-11T14:24:31.966Z,7.83
2019-01-11T14:26:37.005Z,9.13
2019-01-11T14:28:42.136Z,7.97
2019-01-11T14:30:47.229Z,7.20
2019-01-11T14:32:52.579Z,8.63
2019-01-11T14:34:57.458Z,6.00
2019-01-11T14:37:02.555Z,5.77
2019-01-11T14:39:09.803Z,6.80
2019-01-11T14:41:15.315Z,7.20
2019-01-11T14:43:20.285Z,6.47
2019-01-11T14:45:25.323Z,7.87
2019-01-11T14:47:30.348Z,7.20
2019-01-11T14:49:35.249Z,6.57
2019-01-11T14:51:40.696Z,7.07
2019-01-11T14:53:45.676Z,7.80
2019-01-11T14:55:56.150Z,7.10
2019-01-11T14:57:57.324Z,5.37
2019-01-11T15:00:02.223Z,6.70
2019-01-11T15:02:07.359Z,7.30
2019-01-11T15:04:12.352Z,7.03
2019-01-11T15:06:17.447Z,8.50
2019-01-11T15:08:22.425Z,7.73
2019-01-11T15:10:27.472Z,8.97
2019-01-11T15:12:32.746Z,8.00
2019-01-11T15:14:37.845Z,9.87
2019-01-11T15:16:42.804Z,6.80
2019-01-11T15:18:47.865Z,6.57
2019-01-11T15:20:52.803Z,7.67
2019-01-11T15:22:57.758Z,7.30
2019-01-11T15:25:02.790Z,5.93
2019-01-11T15:27:07.823Z,7.20
2019-01-11T15:29:12.935Z,6.47
2019-01-11T15:31:18.104Z,8.03
2019-01-11T15:33:23.078Z,8.57
2019-01-11T15:35:28.100Z,7.17
2019-01-11T15:37:33.093Z,6.83
2019-01-11T15:39:38.421Z,7.10
2019-01-11T15:41:43.765Z,7.23
2019-01-11T15:43:49.024Z,7.57
2019-01-11T15:46:03.254Z,7.50
2019-01-11T15:48:10.940Z,8.20
2019-01-11T15:50:39.579Z,7.53
2019-01-11T15:52:44.657Z,7.27
2019-01-11T15:54:50.107Z,7.93
2019-01-11T15:56:55.194Z,6.43
2019-01-11T15:59:00.630Z,8.20
2019-01-11T16:01:05.749Z,7.97
2019-01-11T16:03:10.948Z,7.60
2019-01-11T16:05:15.986Z,7.03
2019-01-11T16:07:20.941Z,6.03
2019-01-11T16:10:15.760Z,8.97
2019-01-11T16:12:20.765Z,6.73
2019-01-11T16:15:07.396Z,7.27
2019-01-11T16:17:15.404Z,6.73
2019-01-11T16:19:20.310Z,6.03
2019-01-11T16:21:25.656Z,6.30
2019-01-11T16:23:31.140Z,7.10
2019-01-11T16:25:36.126Z,6.87
2019-01-11T16:27:41.500Z,7.33
2019-01-11T16:29:46.843Z,6.43
2019-01-11T16:31:51.901Z,6.50
2019-01-11T16:33:56.853Z,6.03
2019-01-11T16:36:01.818Z,6.03
2019-01-11T16:38:06.894Z,8.87
2019-01-11T16:40:12.186Z,7.63
2019-01-11T16:42:17.171Z,7.23
2019-01-11T16:44:22.602Z,6.40
2019-01-11T16:46:27.631Z,6.03
2019-01-11T16:48:33.825Z,5.17
2019-01-11T16:50:39.101Z,5.23
2019-01-11T16:52:46.535Z,5.33
2019-01-11T16:54:51.089Z,5.03
2019-01-11T16:56:55.978Z,4.90
2019-01-11T16:59:01.077Z,4.80
2019-01-11T17:01:06.214Z,4.97
2019-01-11T17:03:11.213Z,6.93
2019-01-11T17:05:16.379Z,6.07
2019-01-11T17:07:21.355Z,8.97
2019-01-11T17:09:26.270Z,5.57
2019-01-11T17:11:31.306Z,5.03
2019-01-11T17:13:40.564Z,5.43
2019-01-11T17:15:43.238Z,6.23
2019-01-11T17:17:48.321Z,5.80
2019-01-11T17:19:53.363Z,5.83
2019-01-11T17:21:58.456Z,6.17
2019-01-11T17:24:03.624Z,8.23
2019-01-11T17:26:08.769Z,6.13
2019-01-11T17:28:14.708Z,5.57
2019-01-11T17:30:20.114Z,7.47
2019-01-11T17:32:25.216Z,5.60
2019-01-11T17:34:30.190Z,5.93
2019-01-11T17:36:35.397Z,4.77
2019-01-11T17:38:40.417Z,5.50
2019-01-11T17:40:46.011Z,4.80
2019-01-11T17:42:51.029Z,3.43
2019-01-11T17:44:55.953Z,3.03
2019-01-11T17:47:01.191Z,3.77
2019-01-11T17:49:06.534Z,4.47
2019-01-11T17:51:11.792Z,3.90
2019-01-11T17:53:16.854Z,4.13
2019-01-11T17:55:21.821Z,3.90
2019-01-11T17:57:26.832Z,3.10
2019-01-11T17:59:31.820Z,3.13
2019-01-11T18:01:36.736Z,3.50
2019-01-11T18:03:41.634Z,3.63
2019-01-11T18:05:46.830Z,3.47
2019-01-11T18:07:51.780Z,5.70
2019-01-11T18:09:57.018Z,5.07
2019-01-11T18:12:01.933Z,5.50
2019-01-11T18:14:06.967Z,5.20
2019-01-11T18:16:12.098Z,4.60
2019-01-11T18:18:16.994Z,3.93
2019-01-11T18:20:25.470Z,5.20
2019-01-11T18:22:30.428Z,4.20
2019-01-11T18:24:35.482Z,6.00
2019-01-11T18:26:40.536Z,5.53
2019-01-11T18:28:45.439Z,4.73
2019-01-11T18:30:54.401Z,4.93
2019-01-11T18:32:59.627Z,6.23
2019-01-11T18:35:04.975Z,5.33
2019-01-11T18:37:09.948Z,4.30
2019-01-11T18:39:15.002Z,5.43
2019-01-11T18:41:20.070Z,5.33
2019-01-11T18:43:25.051Z,4.77
2019-01-11T18:45:30.154Z,6.97
2019-01-11T18:47:35.152Z,6.57
2019-01-11T18:49:40.182Z,5.77
2019-01-11T18:51:45.595Z,5.50
2019-01-11T18:53:50.472Z,5.40
2019-01-11T18:55:55.455Z,8.53
2019-01-11T18:58:00.435Z,6.73
2019-01-11T19:00:13.341Z,6.53
2019-01-11T19:02:18.246Z,5.03
2019-01-11T19:04:23.296Z,4.97
2019-01-11T19:06:28.232Z,4.63
2019-01-11T19:08:33.187Z,5.37
2019-01-11T19:10:38.318Z,4.70
2019-01-11T19:12:43.414Z,4.27
2019-01-11T19:14:48.559Z,5.23
2019-01-11T19:16:53.757Z,6.90
2019-01-11T19:18:58.757Z,3.50
2019-01-11T19:21:07.607Z,4.07
2019-01-11T19:23:12.812Z,3.53
2019-01-11T19:25:17.918Z,3.57
2019-01-11T19:27:23.018Z,5.00
2019-01-11T19:29:28.000Z,3.07
2019-01-11T19:31:33.757Z,4.10
2019-01-11T19:33:38.743Z,4.30
2019-01-11T19:35:46.748Z,3.10
2019-01-11T19:37:51.767Z,3.47
2019-01-11T19:39:56.725Z,3.83
2019-01-11T19:42:02.108Z,3.73
2019-01-11T19:44:07.340Z,3.90
2019-01-11T19:46:12.421Z,7.13
2019-01-11T19:48:17.537Z,3.80
2019-01-11T19:50:24.563Z,3.73
2019-01-11T19:52:29.727Z,3.30
2019-01-11T19:54:34.981Z,4.20
2019-01-11T19:56:40.026Z,3.70
2019-01-11T19:58:44.915Z,4.27
2019-01-11T20:00:50.635Z,4.67
2019-01-11T20:02:55.988Z,4.13
2019-01-11T20:05:01.082Z,4.87
2019-01-11T20:07:06.245Z,4.27
2019-01-11T20:09:11.660Z,5.83
2019-01-11T20:11:17.101Z,6.67
2019-01-11T20:13:22.468Z,6.73
2019-01-11T20:15:27.680Z,4.13
2019-01-11T20:17:33.109Z,3.50
2019-01-11T20:19:38.096Z,3.70
2019-01-11T20:21:43.503Z,4.93
2019-01-11T20:23:48.741Z,5.90
2019-01-11T20:25:54.023Z,6.07
2019-01-11T20:27:59.328Z,5.63
2019-01-11T20:30:06.251Z,4.87
2019-01-11T20:32:11.532Z,6.13
2019-01-11T20:34:16.815Z,5.53
2019-01-11T20:36:22.104Z,4.83
2019-01-11T20:38:27.358Z,3.50
2019-01-11T20:40:32.823Z,6.43
2019-01-11T20:42:38.532Z,6.90
2019-01-11T20:44:43.838Z,5.10
2019-01-11T20:46:49.196Z,6.77
2019-01-11T20:48:54.483Z,6.80
2019-01-11T20:50:59.760Z,4.63
2019-01-11T20:53:05.376Z,3.83
2019-01-11T20:55:10.814Z,9.10
2019-01-11T20:57:15.820Z,7.07
2019-01-11T20:59:20.781Z,6.10
2019-01-11T21:01:25.871Z,5.35
2019-01-11T21:03:30.829Z,4.80
2019-01-11T21:05:36.065Z,5.07
2019-01-11T21:07:41.249Z,5.60
2019-01-11T21:09:46.218Z,4.43
2019-01-11T21:11:51.590Z,4.97
2019-01-11T21:13:56.613Z,5.50
2019-01-11T21:16:01.594Z,4.57
2019-01-11T21:18:07.338Z,7.03
2019-01-11T21:20:15.142Z,7.43
2019-01-11T21:22:20.219Z,4.97
2019-01-11T21:24:25.283Z,8.33
2019-01-11T21:26:30.311Z,6.47
2019-01-11T21:28:35.371Z,7.50
2019-01-11T21:30:40.792Z,5.03
2019-01-11T21:32:45.937Z,4.43
2019-01-11T21:34:51.017Z,4.60
2019-01-11T21:36:56.003Z,9.60
2019-01-11T21:39:00.979Z,15.23
2019-01-11T21:41:06.104Z,7.03
2019-01-11T21:43:11.357Z,7.47
2019-01-11T21:45:16.706Z,7.77
2019-01-11T21:47:21.653Z,6.23
2019-01-11T21:49:26.694Z,4.00
2019-01-11T21:51:31.800Z,5.43
2019-01-11T21:53:37.040Z,6.10
2019-01-11T21:55:42.108Z,6.97
2019-01-11T21:57:47.357Z,5.37
2019-01-11T21:59:52.325Z,6.00
2019-01-11T22:01:57.200Z,3.20
2019-01-11T22:04:02.265Z,4.60
2019-01-11T22:06:07.429Z,6.83
2019-01-11T22:08:12.572Z,5.50
2019-01-11T22:10:18.264Z,4.13
2019-01-11T22:12:23.243Z,4.27
2019-01-11T22:14:28.301Z,4.07
2019-01-11T22:16:33.412Z,3.90
2019-01-11T22:18:38.541Z,3.87
2019-01-11T22:20:43.594Z,3.17
2019-01-11T22:22:48.744Z,3.00
2019-01-11T22:24:53.697Z,3.20
2019-01-11T22:26:58.748Z,3.10
2019-01-11T22:29:04.153Z,3.40
2019-01-11T22:31:09.265Z,2.50
2019-01-11T22:33:14.231Z,22.00
2019-01-11T22:35:19.933Z,13.17
2019-01-11T22:37:25.075Z,12.97
2019-01-11T22:39:30.052Z,4.40
2019-01-11T22:41:35.030Z,4.40
2019-01-11T22:43:40.055Z,3.33
2019-01-11T22:45:45.267Z,2.90
2019-01-11T22:47:50.290Z,2.33
2019-01-11T22:49:55.340Z,3.10
2019-01-11T22:52:00.470Z,2.13
2019-01-11T22:54:10.174Z,1.77
2019-01-11T22:56:13.639Z,2.90
2019-01-11T22:58:18.642Z,1.20
2019-01-11T23:00:57.781Z,1.33
2019-01-11T23:03:03.089Z,1.30
2019-01-11T23:05:12.462Z,2.93
2019-01-11T23:07:51.795Z,2.43
2019-01-11T23:10:12.807Z,1.80
2019-01-11T23:12:45.883Z,1.53
2019-01-11T23:14:51.019Z,2.33
2019-01-11T23:17:18.405Z,1.37
2019-01-11T23:19:23.282Z,2.10
2019-01-11T23:21:28.395Z,1.50
2019-01-11T23:23:33.730Z,1.63
2019-01-11T23:25:38.764Z,1.20
2019-01-11T23:27:43.780Z,0.70
2019-01-11T23:29:48.800Z,2.50
2019-01-11T23:31:53.746Z,1.00
2019-01-11T23:33:58.632Z,1.40
2019-01-11T23:36:03.608Z,2.00
2019-01-11T23:38:08.674Z,2.13
2019-01-11T23:40:17.429Z,1.57
2019-01-11T23:42:22.778Z,1.03
2019-01-11T23:44:27.746Z,1.53
2019-01-11T23:46:32.870Z,1.50
2019-01-11T23:48:37.775Z,1.10
2019-01-11T23:50:43.070Z,1.30
2019-01-11T23:52:48.102Z,1.50
2019-01-11T23:54:53.142Z,3.20
2019-01-11T23:56:58.136Z,3.23
2019-01-11T23:59:03.478Z,1.30
